createdAt,value
2022-08-03T00:00:28.438Z,11.88
2022-08-03T00:00:47.123Z,11.88
2022-08-03T00:01:18.088Z,11.88
2022-08-03T00:01:49.025Z,11.88
2022-08-03T00:02:19.998Z,11.88
2022-08-03T00:02:51.146Z,11.88
2022-08-03T00:03:23.057Z,11.88
2022-08-03T00:03:53.010Z,11.88
2022-08-03T00:04:33.638Z,11.88
2022-08-03T00:04:55.014Z,11.88
2022-08-03T00:05:25.992Z,11.88
2022-08-03T00:06:03.820Z,11.88
2022-08-03T00:06:28.029Z,12.11
2022-08-03T00:06:59.053Z,12.00
2022-08-03T00:07:29.982Z,12.00
2022-08-03T00:08:01.108Z,12.00
2022-08-03T00:08:33.029Z,12.00
2022-08-03T00:09:04.037Z,12.00
2022-08-03T00:09:35.507Z,12.22
2022-08-03T00:10:05.159Z,12.22
2022-08-03T00:10:35.987Z,12.11
2022-08-03T00:11:07.012Z,11.88
2022-08-03T00:11:38.056Z,11.88
2022-08-03T00:12:09.112Z,11.88
2022-08-03T00:12:40.001Z,11.88
2022-08-03T00:13:11.067Z,11.88
2022-08-03T00:13:42.989Z,11.88
2022-08-03T00:14:13.011Z,11.88
2022-08-03T00:14:44.013Z,12.11
2022-08-03T00:15:27.345Z,12.11
2022-08-03T00:15:46.029Z,12.11
2022-08-03T00:16:17.269Z,12.11
2022-08-03T00:16:48.058Z,12.11
2022-08-03T00:17:19.014Z,12.11
2022-08-03T00:17:52.860Z,12.11
2022-08-03T00:18:20.985Z,12.11
2022-08-03T00:18:53.060Z,12.11
2022-08-03T00:19:22.989Z,12.11
2022-08-03T00:19:54.024Z,12.11
2022-08-03T00:20:25.221Z,12.22
2022-08-03T00:20:56.155Z,12.00
2022-08-03T00:21:27.063Z,12.00
2022-08-03T00:21:58.054Z,12.22
2022-08-03T00:22:29.008Z,12.00
2022-08-03T00:23:00.084Z,12.22
2022-08-03T00:23:51.158Z,12.11
2022-08-03T00:24:03.071Z,12.11
2022-08-03T00:24:32.985Z,12.11
2022-08-03T00:25:04.062Z,12.11
2022-08-03T00:25:35.042Z,12.22
2022-08-03T00:26:06.061Z,12.22
2022-08-03T00:26:36.998Z,12.22
2022-08-03T00:27:08.096Z,12.22
2022-08-03T00:27:39.027Z,12.22
2022-08-03T00:28:10.160Z,11.88
2022-08-03T00:28:41.023Z,11.88
2022-08-03T00:29:12.990Z,11.88
2022-08-03T00:29:59.890Z,11.88
2022-08-03T00:30:26.933Z,12.11
2022-08-03T00:30:45.053Z,11.88
2022-08-03T00:31:15.973Z,11.88
2022-08-03T00:31:59.184Z,11.88
2022-08-03T00:32:18.122Z,12.11
2022-08-03T00:32:49.014Z,11.88
2022-08-03T00:33:19.986Z,11.77
2022-08-03T00:33:59.306Z,11.77
2022-08-03T00:34:36.210Z,11.77
2022-08-03T00:35:37.141Z,11.88
2022-08-03T00:35:55.006Z,11.88
2022-08-03T00:36:26.105Z,11.88
2022-08-03T00:36:56.978Z,11.88
2022-08-03T00:37:41.537Z,11.88
2022-08-03T00:37:59.024Z,11.88
2022-08-03T00:38:30.007Z,11.88
2022-08-03T00:39:01.082Z,11.77
2022-08-03T00:39:32.990Z,11.77
2022-08-03T00:40:04.033Z,11.77
2022-08-03T00:40:33.971Z,11.77
2022-08-03T00:41:05.059Z,11.77
2022-08-03T00:41:35.987Z,11.77
2022-08-03T00:42:07.017Z,11.77
2022-08-03T00:42:38.217Z,11.77
2022-08-03T00:43:09.054Z,11.77
2022-08-03T00:43:40.033Z,11.77
2022-08-03T00:44:11.037Z,11.77
2022-08-03T00:44:43.002Z,11.77
2022-08-03T00:45:25.322Z,11.88
2022-08-03T00:45:44.041Z,11.88
2022-08-03T00:46:20.607Z,11.88
2022-08-03T00:46:45.992Z,11.88
2022-08-03T00:47:16.985Z,11.88
2022-08-03T00:47:48.013Z,12.00
2022-08-03T00:48:29.621Z,12.00
2022-08-03T00:48:49.966Z,12.00
2022-08-03T00:49:21.114Z,12.00
2022-08-03T00:49:52.971Z,12.22
2022-08-03T00:50:23.037Z,12.22
2022-08-03T00:50:54.090Z,12.00
2022-08-03T00:51:24.991Z,12.00
2022-08-03T00:51:55.986Z,12.22
2022-08-03T00:52:26.971Z,12.11
2022-08-03T00:52:58.002Z,12.11
2022-08-03T00:53:28.992Z,12.11
2022-08-03T00:53:59.976Z,12.11
2022-08-03T00:54:31.044Z,12.11
2022-08-03T00:55:03.019Z,12.11
2022-08-03T00:55:32.975Z,12.11
2022-08-03T00:56:04.117Z,12.00
2022-08-03T00:56:34.972Z,12.00
2022-08-03T00:57:06.073Z,12.00
2022-08-03T00:57:36.984Z,12.27
2022-08-03T00:58:08.048Z,12.22
2022-08-03T00:58:39.050Z,12.22
2022-08-03T00:59:10.010Z,12.22
2022-08-03T00:59:41.002Z,12.22
2022-08-03T01:00:25.369Z,12.11
2022-08-03T01:00:43.135Z,12.00
2022-08-03T01:01:14.252Z,12.00
2022-08-03T01:01:45.077Z,12.00
2022-08-03T01:02:16.379Z,12.00
2022-08-03T01:02:47.096Z,11.88
2022-08-03T01:03:18.014Z,12.00
2022-08-03T01:03:49.002Z,11.88
2022-08-03T01:04:20.005Z,11.88
2022-08-03T01:04:51.013Z,11.88
2022-08-03T01:05:23.064Z,11.88
2022-08-03T01:05:53.065Z,11.88
2022-08-03T01:06:24.043Z,11.88
2022-08-03T01:06:55.020Z,11.88
2022-08-03T01:07:26.072Z,11.88
2022-08-03T01:07:57.071Z,11.88
2022-08-03T01:08:28.176Z,11.88
2022-08-03T01:08:59.039Z,11.88
2022-08-03T01:09:30.002Z,11.77
2022-08-03T01:10:01.066Z,11.77
2022-08-03T01:10:33.061Z,11.61
2022-08-03T01:11:04.015Z,11.77
2022-08-03T01:11:34.057Z,11.77
2022-08-03T01:12:05.068Z,11.77
2022-08-03T01:12:35.970Z,11.77
2022-08-03T01:13:07.036Z,11.77
2022-08-03T01:14:18.890Z,11.77
2022-08-03T01:14:39.999Z,11.77
2022-08-03T01:15:23.367Z,11.77
2022-08-03T01:15:42.995Z,11.77
2022-08-03T01:16:12.968Z,11.77
2022-08-03T01:16:44.000Z,11.77
2022-08-03T01:17:15.001Z,11.77
2022-08-03T01:17:47.214Z,11.77
2022-08-03T01:18:16.965Z,11.77
2022-08-03T01:18:47.985Z,11.77
2022-08-03T01:19:19.019Z,11.77
2022-08-03T01:19:50.021Z,11.77
2022-08-03T01:20:20.990Z,11.77
2022-08-03T01:20:52.963Z,11.72
2022-08-03T01:21:22.985Z,11.72
2022-08-03T01:21:53.964Z,11.72
2022-08-03T01:22:24.985Z,11.88
2022-08-03T01:22:56.044Z,11.72
2022-08-03T01:23:28.800Z,11.88
2022-08-03T01:23:58.027Z,11.88
2022-08-03T01:24:28.997Z,11.88
2022-08-03T01:24:59.974Z,11.88
2022-08-03T01:25:30.970Z,11.88
2022-08-03T01:26:03.008Z,11.88
2022-08-03T01:26:32.961Z,11.88
2022-08-03T01:27:03.997Z,11.88
2022-08-03T01:27:34.965Z,11.88
2022-08-03T01:28:05.984Z,11.88
2022-08-03T01:28:36.989Z,11.88
2022-08-03T01:29:08.038Z,12.11
2022-08-03T01:29:38.979Z,12.11
2022-08-03T01:30:22.773Z,12.00
2022-08-03T01:30:40.988Z,12.00
2022-08-03T01:31:12.988Z,11.72
2022-08-03T01:33:02.301Z,11.72
2022-08-03T01:33:16.003Z,11.77
2022-08-03T01:33:47.033Z,11.77
2022-08-03T01:34:18.047Z,11.77
2022-08-03T01:34:49.043Z,11.77
2022-08-03T01:35:19.986Z,11.77
2022-08-03T01:35:50.958Z,11.77
2022-08-03T01:36:23.020Z,11.77
2022-08-03T01:36:52.968Z,11.77
2022-08-03T01:37:23.965Z,11.61
2022-08-03T01:37:54.980Z,11.61
2022-08-03T01:38:26.046Z,11.77
2022-08-03T01:38:56.957Z,11.77
2022-08-03T01:39:27.999Z,11.77
2022-08-03T01:39:59.010Z,11.77
2022-08-03T01:40:29.963Z,11.77
2022-08-03T01:41:01.102Z,11.77
2022-08-03T01:41:32.970Z,11.77
2022-08-03T01:42:03.992Z,11.61
2022-08-03T01:42:33.989Z,11.61
2022-08-03T01:43:05.014Z,11.61
2022-08-03T01:43:59.016Z,11.61
2022-08-03T01:44:37.981Z,11.77
2022-08-03T01:45:21.327Z,11.77
2022-08-03T01:45:40.019Z,11.77
2022-08-03T01:46:10.962Z,11.77
2022-08-03T01:46:47.720Z,11.77
2022-08-03T01:47:12.975Z,11.77
2022-08-03T01:47:43.970Z,11.77
2022-08-03T01:48:14.955Z,11.77
2022-08-03T01:48:46.083Z,11.77
2022-08-03T01:49:17.105Z,11.77
2022-08-03T01:49:48.136Z,11.77
2022-08-03T01:50:19.113Z,11.77
2022-08-03T01:50:50.011Z,11.77
2022-08-03T01:51:20.980Z,11.77
2022-08-03T01:52:03.860Z,11.77
2022-08-03T01:52:22.964Z,11.88
2022-08-03T01:52:53.959Z,11.88
2022-08-03T01:53:24.986Z,11.88
2022-08-03T01:53:55.989Z,11.88
2022-08-03T01:54:26.954Z,11.88
2022-08-03T01:54:57.972Z,11.88
2022-08-03T01:55:29.014Z,11.72
2022-08-03T01:55:59.980Z,11.72
2022-08-03T01:56:30.986Z,11.72
2022-08-03T01:57:02.965Z,11.88
2022-08-03T01:57:32.956Z,11.88
2022-08-03T01:58:34.946Z,11.88
2022-08-03T01:59:06.020Z,11.88
2022-08-03T01:59:36.947Z,11.88
2022-08-03T02:00:20.444Z,11.88
2022-08-03T02:00:39.184Z,11.88
2022-08-03T02:01:10.167Z,11.72
2022-08-03T02:02:28.813Z,11.72
2022-08-03T02:02:43.329Z,11.77
2022-08-03T02:03:13.968Z,11.77
2022-08-03T02:03:56.672Z,11.77
2022-08-03T02:04:16.009Z,11.77
2022-08-03T02:04:47.093Z,11.77
2022-08-03T02:05:17.978Z,11.77
2022-08-03T02:05:54.088Z,11.77
2022-08-03T02:07:00.623Z,11.77
2022-08-03T02:07:22.960Z,11.72
2022-08-03T02:07:52.941Z,11.72
2022-08-03T02:08:24.021Z,11.72
2022-08-03T02:08:54.944Z,11.88
2022-08-03T02:09:26.010Z,11.88
2022-08-03T02:09:56.953Z,11.88
2022-08-03T02:10:34.278Z,11.72
2022-08-03T02:10:58.980Z,11.72
2022-08-03T02:11:29.994Z,11.72
2022-08-03T02:12:01.019Z,11.72
2022-08-03T02:12:32.958Z,11.88
2022-08-03T02:13:04.013Z,11.88
2022-08-03T02:13:33.946Z,11.88
2022-08-03T02:14:04.963Z,11.88
2022-08-03T02:14:36.007Z,11.88
2022-08-03T02:15:19.305Z,11.88
2022-08-03T02:15:38.023Z,11.88
2022-08-03T02:16:09.012Z,11.72
2022-08-03T02:16:40.126Z,11.72
2022-08-03T02:17:11.026Z,11.72
2022-08-03T02:17:42.936Z,11.72
2022-08-03T02:18:12.950Z,11.72
2022-08-03T02:18:43.974Z,11.88
2022-08-03T02:19:14.966Z,11.88
2022-08-03T02:19:45.943Z,11.88
2022-08-03T02:20:16.987Z,11.77
2022-08-03T02:20:48.041Z,11.77
2022-08-03T02:21:55.934Z,11.77
2022-08-03T02:22:20.964Z,11.77
2022-08-03T02:22:52.996Z,11.77
2022-08-03T02:23:22.963Z,11.77
2022-08-03T02:23:53.951Z,11.77
2022-08-03T02:24:24.951Z,11.77
2022-08-03T02:24:55.948Z,11.77
2022-08-03T02:25:26.949Z,11.77
2022-08-03T02:25:57.951Z,11.77
2022-08-03T02:26:28.968Z,11.77
2022-08-03T02:27:00.027Z,11.72
2022-08-03T02:27:30.992Z,11.88
2022-08-03T02:28:02.963Z,11.88
2022-08-03T02:28:32.989Z,11.72
2022-08-03T02:29:04.081Z,11.88
2022-08-03T02:29:39.607Z,11.88
2022-08-03T02:30:18.344Z,11.77
2022-08-03T02:30:36.977Z,11.77
2022-08-03T02:31:07.995Z,11.77
2022-08-03T02:31:38.970Z,11.77
2022-08-03T02:32:10.123Z,11.77
2022-08-03T02:32:41.009Z,11.77
2022-08-03T02:33:12.949Z,11.77
2022-08-03T02:33:42.960Z,11.77
2022-08-03T02:34:13.956Z,11.77
2022-08-03T02:34:44.961Z,11.72
2022-08-03T02:35:15.979Z,11.72
2022-08-03T02:35:47.005Z,11.72
2022-08-03T02:36:17.953Z,11.72
2022-08-03T02:36:48.964Z,11.72
2022-08-03T02:37:19.949Z,11.77
2022-08-03T02:37:51.011Z,11.77
2022-08-03T02:38:22.993Z,11.77
2022-08-03T02:38:52.949Z,11.61
2022-08-03T02:39:23.957Z,11.72
2022-08-03T02:39:54.937Z,11.72
2022-08-03T02:40:25.976Z,11.88
2022-08-03T02:40:56.967Z,11.88
2022-08-03T02:41:28.057Z,11.88
2022-08-03T02:41:58.981Z,11.88
2022-08-03T02:42:29.961Z,11.77
2022-08-03T02:43:01.051Z,11.77
2022-08-03T02:43:39.216Z,11.77
2022-08-03T02:44:33.960Z,11.77
2022-08-03T02:45:17.349Z,11.77
2022-08-03T02:45:36.005Z,11.77
2022-08-03T02:46:07.007Z,11.77
2022-08-03T02:46:37.964Z,11.77
2022-08-03T02:47:09.016Z,11.77
2022-08-03T02:47:54.306Z,11.77
2022-08-03T02:48:10.953Z,11.77
2022-08-03T02:48:42.947Z,11.77
2022-08-03T02:49:41.462Z,11.77
2022-08-03T02:50:15.134Z,11.77
2022-08-03T02:50:45.965Z,11.77
2022-08-03T02:51:16.979Z,11.77
2022-08-03T02:51:47.956Z,11.72
2022-08-03T02:52:19.202Z,11.72
2022-08-03T02:52:49.949Z,11.72
2022-08-03T02:53:21.023Z,11.72
2022-08-03T02:53:52.953Z,11.88
2022-08-03T02:54:22.960Z,11.72
2022-08-03T02:54:53.925Z,11.72
2022-08-03T02:55:24.945Z,11.72
2022-08-03T02:55:56.030Z,11.88
2022-08-03T02:56:26.949Z,11.88
2022-08-03T02:56:57.989Z,11.72
2022-08-03T02:57:28.927Z,11.72
2022-08-03T02:58:00.913Z,11.88
2022-08-03T02:58:30.951Z,11.88
2022-08-03T02:59:02.956Z,11.88
2022-08-03T02:59:33.002Z,11.88
2022-08-03T03:00:27.264Z,11.88
2022-08-03T03:00:35.072Z,11.88
2022-08-03T03:01:06.102Z,11.77
2022-08-03T03:01:36.964Z,11.77
2022-08-03T03:02:08.032Z,11.77
2022-08-03T03:02:38.956Z,11.77
2022-08-03T03:03:10.027Z,11.77
2022-08-03T03:03:44.850Z,11.77
2022-08-03T03:04:12.964Z,12.00
2022-08-03T03:05:01.322Z,12.00
2022-08-03T03:06:15.936Z,11.77
2022-08-03T03:06:47.114Z,11.77
2022-08-03T03:07:17.998Z,11.77
2022-08-03T03:07:52.165Z,11.77
2022-08-03T03:08:26.269Z,12.00
2022-08-03T03:08:50.990Z,11.77
2022-08-03T03:09:22.968Z,12.00
2022-08-03T03:09:52.941Z,12.00
2022-08-03T03:10:24.030Z,11.77
2022-08-03T03:10:55.741Z,12.00
2022-08-03T03:11:26.065Z,11.77
2022-08-03T03:11:56.987Z,12.00
2022-08-03T03:12:28.014Z,12.00
2022-08-03T03:12:58.987Z,12.00
2022-08-03T03:13:30.281Z,12.00
2022-08-03T03:14:01.003Z,12.00
2022-08-03T03:14:33.770Z,11.88
2022-08-03T03:15:16.392Z,11.88
2022-08-03T03:15:33.929Z,11.88
2022-08-03T03:16:04.971Z,11.88
2022-08-03T03:16:36.002Z,11.88
2022-08-03T03:17:06.965Z,11.77
2022-08-03T03:17:37.941Z,11.77
2022-08-03T03:18:08.965Z,11.77
2022-08-03T03:18:40.011Z,12.00
2022-08-03T03:19:11.031Z,12.00
2022-08-03T03:19:42.949Z,12.00
2022-08-03T03:20:12.989Z,11.77
2022-08-03T03:20:43.958Z,12.00
2022-08-03T03:21:15.008Z,12.00
2022-08-03T03:21:45.968Z,12.00
2022-08-03T03:22:17.164Z,12.00
2022-08-03T03:22:47.938Z,12.00
2022-08-03T03:23:18.956Z,12.00
2022-08-03T03:23:49.990Z,12.00
2022-08-03T03:24:20.991Z,12.00
2022-08-03T03:24:52.927Z,12.00
2022-08-03T03:25:22.941Z,12.00
2022-08-03T03:25:53.973Z,12.00
2022-08-03T03:26:24.923Z,12.00
2022-08-03T03:26:55.957Z,12.00
2022-08-03T03:27:26.934Z,12.00
2022-08-03T03:27:57.926Z,12.00
2022-08-03T03:28:28.941Z,12.00
2022-08-03T03:29:00.013Z,12.00
2022-08-03T03:29:31.047Z,12.00
2022-08-03T03:30:15.318Z,12.11
2022-08-03T03:30:32.940Z,12.11
2022-08-03T03:31:03.989Z,12.11
2022-08-03T03:31:34.993Z,12.11
2022-08-03T03:32:06.011Z,12.11
2022-08-03T03:32:36.944Z,12.11
2022-08-03T03:33:07.940Z,12.11
2022-08-03T03:33:38.960Z,12.11
2022-08-03T03:34:10.023Z,12.11
2022-08-03T03:34:40.945Z,12.11
2022-08-03T03:35:12.938Z,12.11
2022-08-03T03:35:42.923Z,12.11
2022-08-03T03:36:13.975Z,12.11
2022-08-03T03:36:44.966Z,12.11
2022-08-03T03:37:15.948Z,12.11
2022-08-03T03:37:46.954Z,12.11
2022-08-03T03:38:17.951Z,12.11
2022-08-03T03:38:48.946Z,12.11
2022-08-03T03:39:19.972Z,12.11
2022-08-03T03:39:50.977Z,12.11
2022-08-03T03:40:22.923Z,12.11
2022-08-03T03:40:52.987Z,12.11
2022-08-03T03:41:23.932Z,12.11
2022-08-03T03:41:55.066Z,12.11
2022-08-03T03:42:25.932Z,12.11
2022-08-03T03:42:56.915Z,12.11
2022-08-03T03:43:27.996Z,12.11
2022-08-03T03:43:58.932Z,12.00
2022-08-03T03:44:29.976Z,12.00
2022-08-03T03:45:13.365Z,12.00
2022-08-03T03:45:32.935Z,12.00
2022-08-03T03:46:03.961Z,12.00
2022-08-03T03:46:33.958Z,11.88
2022-08-03T03:47:05.067Z,11.88
2022-08-03T03:47:36.028Z,12.00
2022-08-03T03:48:06.998Z,12.00
2022-08-03T03:48:38.011Z,12.00
2022-08-03T03:49:09.132Z,12.00
2022-08-03T03:49:40.152Z,12.00
2022-08-03T03:50:11.026Z,12.00
2022-08-03T03:50:43.049Z,12.00
2022-08-03T03:51:13.081Z,12.00
2022-08-03T03:51:43.977Z,12.00
2022-08-03T03:52:15.198Z,12.00
2022-08-03T03:52:46.035Z,12.00
2022-08-03T03:53:17.041Z,12.00
2022-08-03T03:53:48.017Z,12.00
2022-08-03T03:54:19.021Z,12.00
2022-08-03T03:54:50.011Z,12.00
2022-08-03T03:55:21.038Z,12.00
2022-08-03T03:55:59.373Z,12.00
2022-08-03T03:56:22.945Z,12.00
2022-08-03T03:56:53.991Z,12.00
2022-08-03T03:57:24.991Z,12.00
2022-08-03T03:57:56.027Z,12.00
2022-08-03T03:58:26.937Z,12.11
2022-08-03T03:58:58.034Z,12.11
2022-08-03T03:59:29.009Z,12.11
2022-08-03T04:00:00.047Z,12.11
2022-08-03T04:00:41.690Z,12.11
2022-08-03T04:01:03.159Z,12.11
2022-08-03T04:01:33.029Z,12.11
2022-08-03T04:02:04.076Z,12.11
2022-08-03T04:02:35.027Z,12.11
2022-08-03T04:03:06.013Z,12.11
2022-08-03T04:03:36.992Z,12.11
2022-08-03T04:04:08.240Z,12.11
2022-08-03T04:04:38.997Z,12.11
2022-08-03T04:05:10.025Z,12.11
2022-08-03T04:05:45.794Z,12.11
2022-08-03T04:06:13.009Z,12.11
2022-08-03T04:06:42.960Z,12.11
2022-08-03T04:07:13.990Z,12.11
2022-08-03T04:07:45.020Z,12.11
2022-08-03T04:08:15.996Z,12.11
2022-08-03T04:08:47.107Z,12.11
2022-08-03T04:09:18.011Z,12.11
2022-08-03T04:09:49.126Z,12.11
2022-08-03T04:10:20.005Z,12.11
2022-08-03T04:10:51.013Z,12.11
2022-08-03T04:11:30.205Z,12.22
2022-08-03T04:11:53.026Z,12.22
2022-08-03T04:12:23.952Z,12.22
2022-08-03T04:12:55.007Z,12.22
2022-08-03T04:13:26.038Z,12.11
2022-08-03T04:13:57.037Z,12.22
2022-08-03T04:14:28.031Z,12.22
2022-08-03T04:14:59.035Z,12.11
2022-08-03T04:15:42.343Z,12.11
2022-08-03T04:16:01.116Z,12.11
2022-08-03T04:16:33.038Z,12.11
2022-08-03T04:17:04.040Z,12.11
2022-08-03T04:17:34.003Z,12.11
2022-08-03T04:18:05.058Z,12.22
2022-08-03T04:18:36.000Z,12.22
2022-08-03T04:19:07.020Z,12.22
2022-08-03T04:19:38.091Z,12.22
2022-08-03T04:20:09.029Z,12.22
2022-08-03T04:20:40.025Z,12.22
2022-08-03T04:21:11.042Z,12.22
2022-08-03T04:21:43.071Z,12.22
2022-08-03T04:22:13.129Z,12.22
2022-08-03T04:22:44.012Z,12.22
2022-08-03T04:23:15.822Z,12.11
2022-08-03T04:23:46.036Z,12.22
2022-08-03T04:24:17.044Z,12.22
2022-08-03T04:24:48.011Z,12.22
2022-08-03T04:25:19.061Z,12.22
2022-08-03T04:25:50.035Z,12.22
2022-08-03T04:26:21.197Z,12.22
2022-08-03T04:26:53.079Z,12.22
2022-08-03T04:27:23.002Z,12.22
2022-08-03T04:28:08.210Z,12.22
2022-08-03T04:28:55.994Z,12.22
2022-08-03T04:29:26.997Z,12.22
2022-08-03T04:29:58.012Z,12.22
2022-08-03T04:30:41.357Z,12.22
2022-08-03T04:31:00.025Z,12.22
2022-08-03T04:31:31.002Z,12.22
2022-08-03T04:32:03.177Z,12.22
2022-08-03T04:32:32.977Z,12.22
2022-08-03T04:33:04.031Z,12.22
2022-08-03T04:33:35.080Z,12.27
2022-08-03T04:34:05.972Z,12.27
2022-08-03T04:34:37.000Z,12.27
2022-08-03T04:35:08.086Z,12.38
2022-08-03T04:36:00.935Z,12.38
2022-08-03T04:36:10.062Z,12.27
2022-08-03T04:36:41.005Z,12.38
2022-08-03T04:37:13.015Z,12.38
2022-08-03T04:37:42.989Z,12.50
2022-08-03T04:38:13.992Z,12.50
2022-08-03T04:38:44.980Z,12.50
2022-08-03T04:39:16.070Z,12.50
2022-08-03T04:39:47.030Z,12.50
2022-08-03T04:40:18.019Z,12.61
2022-08-03T04:40:48.987Z,12.61
2022-08-03T04:41:20.024Z,12.61
2022-08-03T04:42:07.511Z,12.61
2022-08-03T04:42:23.010Z,12.61
2022-08-03T04:42:53.044Z,12.61
2022-08-03T04:43:23.989Z,12.72
2022-08-03T04:43:54.990Z,12.72
2022-08-03T04:44:28.294Z,12.72
2022-08-03T04:45:01.154Z,12.72
2022-08-03T04:45:40.295Z,12.50
2022-08-03T04:45:59.048Z,12.61
2022-08-03T04:46:30.017Z,12.61
2022-08-03T04:47:01.103Z,12.77
2022-08-03T04:47:32.979Z,12.77
2022-08-03T04:48:04.020Z,12.77
2022-08-03T04:48:34.239Z,12.77
2022-08-03T04:49:05.060Z,12.77
2022-08-03T04:49:36.069Z,12.77
2022-08-03T04:50:11.901Z,12.77
2022-08-03T04:50:37.997Z,12.77
2022-08-03T04:51:09.126Z,12.77
2022-08-03T04:51:40.042Z,12.77
2022-08-03T04:52:11.071Z,12.77
2022-08-03T04:52:43.003Z,12.88
2022-08-03T04:53:13.007Z,12.88
2022-08-03T04:53:44.015Z,12.88
2022-08-03T04:54:15.047Z,12.88
2022-08-03T04:54:50.565Z,13.11
2022-08-03T04:55:17.003Z,13.00
2022-08-03T04:55:47.973Z,12.88
2022-08-03T04:56:18.992Z,12.88
2022-08-03T04:56:50.128Z,12.88
2022-08-03T04:57:22.749Z,12.88
2022-08-03T04:57:53.002Z,13.00
2022-08-03T04:58:23.010Z,13.00
2022-08-03T04:58:53.990Z,13.11
2022-08-03T04:59:25.025Z,13.11
2022-08-03T05:00:01.991Z,12.88
2022-08-03T05:00:39.343Z,13.00
2022-08-03T05:00:58.007Z,13.27
2022-08-03T05:01:29.059Z,13.27
2022-08-03T05:02:00.133Z,13.22
2022-08-03T05:02:31.001Z,13.27
2022-08-03T05:03:03.016Z,13.27
2022-08-03T05:03:32.996Z,13.27
2022-08-03T05:04:04.040Z,13.38
2022-08-03T05:04:35.012Z,13.38
2022-08-03T05:05:06.036Z,13.38
2022-08-03T05:05:50.077Z,13.22
2022-08-03T05:06:11.019Z,13.38
2022-08-03T05:06:47.838Z,13.38
2022-08-03T05:07:11.675Z,13.38
2022-08-03T05:07:41.071Z,13.38
2022-08-03T05:08:12.977Z,13.50
2022-08-03T05:08:46.548Z,13.72
2022-08-03T05:09:14.008Z,13.72
2022-08-03T05:09:49.975Z,13.61
2022-08-03T05:10:16.786Z,13.61
2022-08-03T05:10:47.284Z,13.61
2022-08-03T05:11:17.999Z,13.61
2022-08-03T05:11:49.013Z,13.61
2022-08-03T05:12:19.978Z,13.72
2022-08-03T05:12:50.969Z,13.77
2022-08-03T05:13:23.003Z,13.61
2022-08-03T05:13:52.970Z,13.61
2022-08-03T05:14:28.080Z,13.61
2022-08-03T05:14:54.977Z,13.61
2022-08-03T05:15:42.897Z,13.72
2022-08-03T05:15:57.031Z,13.88
2022-08-03T05:16:28.039Z,13.88
2022-08-03T05:16:59.006Z,13.72
2022-08-03T05:17:29.998Z,13.77
2022-08-03T05:18:01.047Z,13.77
2022-08-03T05:18:33.146Z,13.61
2022-08-03T05:19:04.003Z,13.88
2022-08-03T05:19:34.066Z,13.72
2022-08-03T05:20:05.136Z,14.00
2022-08-03T05:20:36.011Z,14.00
2022-08-03T05:21:07.101Z,14.11
2022-08-03T05:21:52.022Z,14.11
2022-08-03T05:22:09.004Z,13.88
2022-08-03T05:22:39.993Z,14.00
2022-08-03T05:23:11.014Z,14.00
2022-08-03T05:23:43.048Z,14.00
2022-08-03T05:24:12.989Z,14.11
2022-08-03T05:24:44.006Z,13.88
2022-08-03T05:25:17.268Z,13.88
2022-08-03T05:25:49.871Z,14.00
2022-08-03T05:26:17.051Z,14.00
2022-08-03T05:26:47.991Z,14.00
2022-08-03T05:27:19.016Z,14.11
2022-08-03T05:27:50.015Z,14.11
2022-08-03T05:28:20.978Z,14.11
2022-08-03T05:28:53.008Z,14.11
2022-08-03T05:29:22.986Z,14.22
2022-08-03T05:29:54.047Z,14.22
2022-08-03T05:30:37.482Z,14.27
2022-08-03T05:30:56.007Z,14.11
2022-08-03T05:31:26.978Z,14.27
2022-08-03T05:31:57.978Z,14.38
2022-08-03T05:32:28.967Z,14.38
2022-08-03T05:33:00.159Z,14.22
2022-08-03T05:33:30.990Z,14.22
2022-08-03T05:34:03.042Z,14.27
2022-08-03T05:34:32.978Z,14.27
2022-08-03T05:36:01.089Z,14.11
2022-08-03T05:36:06.093Z,14.22
2022-08-03T05:36:36.981Z,14.22
2022-08-03T05:37:08.033Z,14.27
2022-08-03T05:37:38.993Z,14.27
2022-08-03T05:38:10.038Z,14.00
2022-08-03T05:38:41.074Z,14.22
2022-08-03T05:39:13.063Z,14.22
2022-08-03T05:39:43.019Z,14.38
2022-08-03T05:40:14.013Z,14.22
2022-08-03T05:40:56.829Z,14.27
2022-08-03T05:41:23.555Z,14.38
2022-08-03T05:41:47.100Z,14.38
2022-08-03T05:42:18.227Z,14.38
2022-08-03T05:42:49.097Z,14.38
2022-08-03T05:43:20.006Z,14.38
2022-08-03T05:43:51.044Z,14.50
2022-08-03T05:44:23.047Z,14.50
2022-08-03T05:44:53.014Z,14.50
2022-08-03T05:45:36.428Z,14.61
2022-08-03T05:46:12.389Z,14.27
2022-08-03T05:46:26.143Z,14.27
2022-08-03T05:46:57.022Z,14.61
2022-08-03T05:47:28.078Z,14.72
2022-08-03T05:47:59.069Z,14.77
2022-08-03T05:48:30.014Z,14.61
2022-08-03T05:49:01.222Z,14.38
2022-08-03T05:49:33.095Z,14.61
2022-08-03T05:50:04.010Z,14.61
2022-08-03T05:50:34.109Z,14.61
2022-08-03T05:51:05.042Z,14.61
2022-08-03T05:51:35.972Z,14.50
2022-08-03T05:52:12.768Z,14.50
2022-08-03T05:52:38.046Z,14.50
2022-08-03T05:53:09.065Z,14.50
2022-08-03T05:53:40.045Z,14.27
2022-08-03T05:54:11.035Z,14.50
2022-08-03T05:54:55.436Z,14.27
2022-08-03T05:55:12.979Z,14.27
2022-08-03T05:55:44.139Z,14.27
2022-08-03T05:56:16.354Z,14.50
2022-08-03T05:56:45.993Z,14.27
2022-08-03T05:57:17.137Z,14.38
2022-08-03T05:57:48.003Z,14.38
2022-08-03T05:58:18.964Z,14.61
2022-08-03T05:58:50.009Z,14.38
2022-08-03T05:59:37.532Z,14.72
2022-08-03T05:59:55.752Z,14.50
2022-08-03T06:00:35.466Z,14.50
2022-08-03T06:00:54.098Z,14.61
2022-08-03T06:01:25.103Z,14.50
2022-08-03T06:01:56.067Z,14.50
2022-08-03T06:02:27.086Z,14.50
2022-08-03T06:02:58.065Z,14.38
2022-08-03T06:03:29.017Z,14.38
2022-08-03T06:03:59.976Z,14.61
2022-08-03T06:04:31.018Z,14.50
2022-08-03T06:05:03.138Z,14.50
2022-08-03T06:05:33.107Z,14.50
2022-08-03T06:06:04.081Z,14.27
2022-08-03T06:06:35.030Z,14.72
2022-08-03T06:07:06.085Z,14.72
2022-08-03T06:07:37.087Z,14.72
2022-08-03T06:08:08.014Z,14.50
2022-08-03T06:08:39.111Z,14.72
2022-08-03T06:09:10.108Z,14.72
2022-08-03T06:10:37.490Z,14.61
2022-08-03T06:10:43.132Z,14.38
2022-08-03T06:11:13.984Z,14.50
2022-08-03T06:11:45.104Z,14.72
2022-08-03T06:12:16.206Z,14.50
2022-08-03T06:12:47.163Z,14.72
2022-08-03T06:13:18.061Z,14.61
2022-08-03T06:13:49.040Z,14.61
2022-08-03T06:14:20.022Z,14.50
2022-08-03T06:14:51.026Z,14.50
2022-08-03T06:15:35.442Z,14.72
2022-08-03T06:15:53.057Z,14.72
2022-08-03T06:16:24.058Z,14.77
2022-08-03T06:16:55.077Z,14.72
2022-08-03T06:17:26.631Z,14.72
2022-08-03T06:18:01.447Z,14.61
2022-08-03T06:18:28.051Z,14.72
2022-08-03T06:18:59.099Z,14.77
2022-08-03T06:19:30.112Z,14.61
2022-08-03T06:20:01.173Z,14.61
2022-08-03T06:20:33.088Z,14.61
2022-08-03T06:21:14.124Z,14.72
2022-08-03T06:21:34.050Z,14.72
2022-08-03T06:22:05.022Z,14.77
2022-08-03T06:22:36.076Z,14.77
2022-08-03T06:23:07.445Z,14.77
2022-08-03T06:23:54.661Z,14.88
2022-08-03T06:24:09.087Z,14.88
2022-08-03T06:24:40.108Z,14.77
2022-08-03T06:25:12.923Z,15.11
2022-08-03T06:25:43.048Z,15.00
2022-08-03T06:26:13.363Z,14.61
2022-08-03T06:26:44.109Z,15.11
2022-08-03T06:27:15.033Z,15.11
2022-08-03T06:27:46.039Z,15.00
2022-08-03T06:28:35.382Z,15.00
2022-08-03T06:29:19.066Z,14.77
2022-08-03T06:29:50.051Z,14.61
2022-08-03T06:30:33.483Z,14.61
2022-08-03T06:30:53.094Z,14.11
2022-08-03T06:31:23.026Z,14.27
2022-08-03T06:31:53.965Z,14.61
2022-08-03T06:32:24.997Z,14.61
2022-08-03T06:32:56.122Z,15.00
2022-08-03T06:34:30.543Z,14.38
2022-08-03T06:35:00.045Z,15.00
2022-08-03T06:35:31.105Z,15.22
2022-08-03T06:36:02.997Z,15.00
2022-08-03T06:36:33.046Z,15.00
2022-08-03T06:37:04.102Z,14.50
2022-08-03T06:37:35.001Z,14.61
2022-08-03T06:38:06.034Z,15.11
2022-08-03T06:38:37.063Z,14.61
2022-08-03T06:39:08.197Z,14.61
2022-08-03T06:39:39.121Z,14.88
2022-08-03T06:40:10.071Z,14.27
2022-08-03T06:40:41.208Z,14.38
2022-08-03T06:41:13.009Z,14.61
2022-08-03T06:41:44.662Z,14.61
2022-08-03T06:42:14.142Z,14.61
2022-08-03T06:42:45.050Z,14.61
2022-08-03T06:43:16.141Z,14.88
2022-08-03T06:44:03.429Z,14.61
2022-08-03T06:44:18.054Z,14.50
2022-08-03T06:44:49.055Z,14.72
2022-08-03T06:45:32.360Z,14.72
2022-08-03T06:45:51.041Z,14.72
2022-08-03T06:46:23.048Z,14.88
2022-08-03T06:46:53.060Z,14.61
2022-08-03T06:47:24.035Z,14.72
2022-08-03T06:47:55.047Z,14.38
2022-08-03T06:48:26.018Z,14.27
2022-08-03T06:48:57.073Z,14.61